Time;durP1;ratioP1;P1;durP2;ratioP2;P2;SDS_P1;SDS_P2;PMS_P1;PMS_P2;Temp;Humidity;BMP_temperature;BMP_pressure;BME280_temperature;BME280_humidity;BME280_pressure;Samples;Min_cycle;Max_cycle;Signal;HPM_P1;HPM_P2
2022/11/19 00:00:37;;;;;;;22.48;10.95;;;;;;;12.02;77.16;100064.44;4869635;29;20347;-78
2022/11/19 00:03:08;;;;;;;19.45;10.75;;;;;;;12.09;77.01;100054.00;4884593;29;20056;-79
2022/11/19 00:05:45;;;;;;;18.10;11.30;;;;;;;12.13;76.25;100068.63;4886456;29;20530;-78
2022/11/19 00:08:20;;;;;;;19.65;11.75;;;;;;;11.77;76.38;100027.06;4886634;29;20114;-76
2022/11/19 00:10:48;;;;;;;24.35;10.68;;;;;;;11.73;76.37;100028.34;4892308;29;20059;-78
2022/11/19 00:13:23;;;;;;;15.13;8.93;;;;;;;11.92;76.93;100064.56;4901774;29;20055;-78
2022/11/19 00:15:53;;;;;;;16.95;10.15;;;;;;;11.37;76.29;99987.75;4883780;29;20633;-77
2022/11/19 00:18:26;;;;;;;17.73;10.25;;;;;;;11.72;77.18;100037.34;4885180;29;20055;-77
2022/11/19 00:20:55;;;;;;;23.13;10.60;;;;;;;11.98;76.56;100039.13;4891012;29;20062;-77
2022/11/19 00:23:27;;;;;;;17.40;10.23;;;;;;;11.86;76.52;100006.63;4889547;29;20656;-78
2022/11/19 00:26:18;;;;;;;17.67;10.35;;;;;;;12.08;75.26;100053.16;4888331;29;20318;-78
2022/11/19 00:28:49;;;;;;;18.23;10.10;;;;;;;11.87;75.24;100031.44;4904676;29;20903;-79
2022/11/19 00:31:23;;;;;;;15.07;10.15;;;;;;;11.88;76.12;100049.06;4886151;29;20059;-79
2022/11/19 00:33:56;;;;;;;15.60;10.82;;;;;;;11.27;76.75;99963.13;4880905;29;20677;-78
2022/11/19 00:36:25;;;;;;;21.42;11.38;;;;;;;11.71;76.59;100051.59;4887216;29;20067;-79
2022/11/19 00:39:04;;;;;;;20.60;11.75;;;;;;;11.65;76.63;100046.06;4891283;29;20079;-78
2022/11/19 00:41:35;;;;;;;14.43;10.68;;;;;;;11.66;76.61;100059.22;4888499;29;20058;-80
2022/11/19 00:44:01;;;;;;;19.25;11.05;;;;;;;11.66;77.05;100066.38;4884357;29;20605;-76
2022/11/19 00:46:32;;;;;;;16.17;9.55;;;;;;;11.88;78.30;100051.72;4887839;29;20150;-78
2022/11/19 00:49:04;;;;;;;17.52;11.30;;;;;;;12.14;77.18;100078.31;4888849;29;20254;-78
2022/11/19 00:51:30;;;;;;;15.70;10.52;;;;;;;11.91;75.16;100064.72;4891585;29;20052;-78
2022/11/19 00:53:59;;;;;;;17.92;10.85;;;;;;;11.88;75.33;100081.81;4890994;29;20055;-78
2022/11/19 00:56:26;;;;;;;17.83;11.02;;;;;;;11.93;75.77;100076.03;4882807;29;20154;-80
2022/11/19 00:58:55;;;;;;;23.52;11.82;;;;;;;11.72;74.99;100047.13;4889068;29;20246;-79
2022/11/19 01:01:26;;;;;;;22.60;11.18;;;;;;;11.74;75.86;100093.81;4887670;29;20737;-80
2022/11/19 01:03:53;;;;;;;21.27;11.50;;;;;;;11.63;76.13;100094.09;4893273;29;20059;-78
2022/11/19 01:06:24;;;;;;;22.23;12.48;;;;;;;11.39;76.66;100072.66;4885307;29;20083;-78
2022/11/19 01:08:52;;;;;;;15.50;10.57;;;;;;;11.31;77.33;100070.75;4886253;29;20528;-78
2022/11/19 01:11:39;;;;;;;19.73;12.77;;;;;;;11.29;78.12;100081.56;4899196;29;20565;-78
2022/11/19 01:14:13;;;;;;;23.80;13.55;;;;;;;11.34;77.58;100097.88;4898820;29;20464;-78
2022/11/19 01:16:47;;;;;;;17.88;11.90;;;;;;;11.16;77.71;100072.28;4901677;28;20326;-78
2022/11/19 01:19:18;;;;;;;17.02;12.57;;;;;;;11.24;78.07;100075.03;4891263;29;20075;-79
2022/11/19 01:21:47;;;;;;;19.95;12.23;;;;;;;11.40;77.38;100100.91;4865863;29;20546;-79
2022/11/19 01:24:21;;;;;;;17.98;11.60;;;;;;;11.43;77.43;100111.22;4884781;29;20098;-79
2022/11/19 01:26:53;;;;;;;17.25;11.82;;;;;;;11.21;77.14;100080.63;4893937;29;20055;-79
2022/11/19 01:29:21;;;;;;;20.88;11.45;;;;;;;11.36;77.57;100116.31;4885412;29;20627;-79
2022/11/19 01:31:50;;;;;;;19.75;12.30;;;;;;;11.26;77.87;100111.09;4886326;29;20472;-79
2022/11/19 01:34:24;;;;;;;17.85;12.50;;;;;;;11.11;78.38;100086.03;4891653;29;20575;-77
2022/11/19 01:36:52;;;;;;;22.60;12.63;;;;;;;11.10;78.33;100073.75;4884672;29;20088;-77
2022/11/19 01:39:26;;;;;;;20.08;12.80;;;;;;;11.09;78.85;100093.31;4886205;29;20051;-79
2022/11/19 01:41:54;;;;;;;21.23;12.40;;;;;;;11.10;78.46;100097.66;4888961;29;20894;-78
2022/11/19 01:45:12;;;;;;;23.73;11.77;;;;;;;10.81;78.96;100063.34;4885168;29;20079;-77
2022/11/19 01:47:54;;;;;;;19.15;12.32;;;;;;;10.89;78.87;100072.22;4871157;29;20064;-77
2022/11/19 01:50:31;;;;;;;16.33;11.40;;;;;;;11.18;79.09;100118.16;4886651;29;20509;-80
2022/11/19 01:53:01;;;;;;;20.27;12.55;;;;;;;10.91;79.51;100072.91;4888773;29;20062;-80
2022/11/19 01:55:41;;;;;;;22.45;13.65;;;;;;;11.06;79.13;100099.78;4896779;29;20402;-80
2022/11/19 01:58:10;;;;;;;20.38;12.85;;;;;;;10.97;79.17;100086.56;4892869;29;20568;-78
2022/11/19 02:00:44;;;;;;;21.75;13.35;;;;;;;10.98;79.59;100090.91;4890943;29;20051;-79
2022/11/19 02:03:13;;;;;;;21.08;13.60;;;;;;;11.01;79.87;100112.66;4877273;29;20267;-79
2022/11/19 02:05:41;;;;;;;20.42;13.00;;;;;;;11.03;79.73;100101.91;4852726;29;20055;-79
2022/11/19 02:08:29;;;;;;;17.15;12.27;;;;;;;11.08;79.93;100113.75;4845941;29;20081;-79
2022/11/19 02:11:20;;;;;;;25.63;14.13;;;;;;;10.66;79.76;100041.81;4830334;29;20187;-79
2022/11/19 02:14:08;;;;;;;18.48;12.45;;;;;;;11.12;79.69;100103.66;4835035;29;20058;-78
2022/11/19 02:17:03;;;;;;;20.15;12.57;;;;;;;10.94;79.73;100086.88;4855150;29;20059;-77
2022/11/19 02:20:09;;;;;;;21.58;14.02;;;;;;;11.05;79.93;100107.91;4860567;29;20437;-78
2022/11/19 02:22:47;;;;;;;18.17;12.73;;;;;;;11.02;79.67;100108.19;4855419;29;20110;-75
2022/11/19 02:25:31;;;;;;;22.55;13.50;;;;;;;11.00;79.28;100118.16;4844875;29;20281;-78
2022/11/19 02:28:16;;;;;;;19.50;13.20;;;;;;;10.97;79.91;100121.09;4843779;29;20225;-78
2022/11/19 02:30:51;;;;;;;21.77;13.73;;;;;;;10.89;80.61;100108.56;4834334;29;20411;-78
2022/11/19 02:34:01;;;;;;;21.50;13.45;;;;;;;10.46;79.42;100035.78;4843195;29;20157;-77
2022/11/19 02:37:05;;;;;;;23.42;12.73;;;;;;;11.07;79.42;100105.94;4817565;29;20142;-78
2022/11/19 02:39:59;;;;;;;22.52;12.80;;;;;;;11.15;79.33;100121.13;4846521;29;20895;-78
2022/11/19 02:42:56;;;;;;;25.13;13.32;;;;;;;11.09;79.18;100115.44;4850426;29;20060;-79
2022/11/19 02:45:51;;;;;;;23.23;13.25;;;;;;;11.04;79.81;100122.16;4827052;29;20411;-78
2022/11/19 02:48:35;;;;;;;22.27;13.68;;;;;;;10.93;79.86;100111.78;4820558;29;20301;-79
2022/11/19 02:51:13;;;;;;;22.50;14.07;;;;;;;10.94;80.01;100127.53;4841440;29;20066;-78
2022/11/19 02:53:46;;;;;;;21.45;13.45;;;;;;;10.87;80.11;100110.53;4837808;29;20063;-80
2022/11/19 02:56:50;;;;;;;26.42;14.63;;;;;;;11.02;79.91;100146.22;4827904;29;20181;-79
2022/11/19 03:06:04;;;;;;;26.98;17.95;;;;;;;11.17;78.14;100141.22;4828392;29;20525;-77
2022/11/19 03:08:46;;;;;;;28.70;17.88;;;;;;;11.21;77.79;100150.53;4838768;29;20067;-78
2022/11/19 03:11:27;;;;;;;24.70;17.17;;;;;;;11.22;78.04;100152.22;4833549;29;20682;-77
2022/11/19 03:17:24;;;;;;;24.42;17.13;;;;;;;11.11;78.01;100152.44;4862304;29;20167;-79
2022/11/19 03:20:17;;;;;;;29.17;17.42;;;;;;;11.06;77.96;100146.75;4840081;29;20059;-79
2022/11/19 03:23:06;;;;;;;36.55;18.75;;;;;;;10.65;78.09;100079.94;4840704;29;20052;-80
2022/11/19 03:25:48;;;;;;;30.67;17.92;;;;;;;10.81;77.71;100114.63;4840413;29;20119;-78
2022/11/19 03:28:26;;;;;;;24.33;17.27;;;;;;;10.75;77.59;100112.56;4832490;29;20052;-77
2022/11/19 03:31:03;;;;;;;28.92;18.65;;;;;;;10.69;78.29;100118.50;4853440;29;20415;-78
2022/11/19 03:33:52;;;;;;;30.83;19.65;;;;;;;10.76;78.48;100129.34;4842233;29;20371;-78
2022/11/19 03:36:35;;;;;;;34.85;19.85;;;;;;;10.74;78.90;100142.75;4841973;29;20051;-78
2022/11/19 03:39:17;;;;;;;26.75;20.50;;;;;;;10.68;79.17;100128.28;4833459;29;20330;-78
2022/11/19 03:41:56;;;;;;;37.20;23.60;;;;;;;10.77;79.21;100152.25;4829124;29;20158;-79
2022/11/19 03:45:01;;;;;;;37.83;23.65;;;;;;;10.58;79.68;100137.25;4858595;29;20234;-78
2022/11/19 03:47:37;;;;;;;39.75;24.50;;;;;;;10.71;79.46;100164.31;4866808;28;20051;-78
2022/11/19 03:50:24;;;;;;;34.55;24.20;;;;;;;10.56;79.68;100141.88;4834453;29;20473;-79
2022/11/19 03:53:04;;;;;;;43.38;23.85;;;;;;;10.57;79.88;100146.22;4836830;29;20316;-79
2022/11/19 03:55:40;;;;;;;47.00;25.65;;;;;;;10.32;80.48;100103.47;4828864;29;20228;-79
2022/11/19 03:58:25;;;;;;;39.95;24.83;;;;;;;10.47;80.58;100131.16;4841994;29;20047;-77
2022/11/19 04:00:56;;;;;;;38.78;24.40;;;;;;;10.08;80.52;100066.81;4836874;29;20082;-79
2022/11/19 04:03:29;;;;;;;45.47;26.15;;;;;;;10.21;80.64;100103.59;4840003;29;20059;-78
2022/11/19 04:06:00;;;;;;;37.05;24.58;;;;;;;10.58;80.60;100166.47;4844714;29;20458;-79
2022/11/19 04:08:30;;;;;;;37.30;23.93;;;;;;;10.32;80.52;100095.50;4828975;29;20055;-79
2022/11/19 04:11:00;;;;;;;41.30;25.73;;;;;;;10.67;79.85;100157.63;4851477;29;20351;-78
2022/11/19 04:13:31;;;;;;;45.90;27.67;;;;;;;10.66;80.44;100172.72;4844663;29;20055;-78
2022/11/19 04:15:59;;;;;;;44.67;27.42;;;;;;;10.61;80.58;100152.91;4859621;29;20059;-79
2022/11/19 04:18:29;;;;;;;40.20;25.52;;;;;;;10.58;80.73;100158.50;4860715;29;20454;-78
2022/11/19 04:21:01;;;;;;;38.38;25.95;;;;;;;10.56;79.99;100156.00;4839518;29;20173;-80
2022/11/19 04:23:36;;;;;;;42.75;26.15;;;;;;;10.55;80.58;100153.50;4862416;29;20541;-78
2022/11/19 04:26:23;;;;;;;42.33;25.33;;;;;;;10.55;80.85;100150.84;4836974;29;20574;-79
2022/11/19 04:29:11;;;;;;;46.83;26.08;;;;;;;10.16;80.63;100096.09;4844814;29;20592;-78
2022/11/19 04:31:55;;;;;;;44.75;26.88;;;;;;;10.31;80.39;100117.69;4846911;29;20063;-79
2022/11/19 04:34:21;;;;;;;43.10;25.13;;;;;;;10.58;80.55;100167.31;4847391;29;20087;-80
2022/11/19 04:36:48;;;;;;;41.42;25.42;;;;;;;10.61;80.39;100179.47;4866544;29;20173;-78
2022/11/19 04:39:14;;;;;;;38.38;26.27;;;;;;;10.55;80.35;100158.78;4825398;29;20110;-79
2022/11/19 04:41:41;;;;;;;40.92;28.52;;;;;;;10.50;80.68;100155.75;4842247;29;20323;-80
2022/11/19 04:44:13;;;;;;;41.28;26.85;;;;;;;10.68;80.70;100194.66;4841725;29;20940;-80
2022/11/19 04:46:44;;;;;;;46.38;27.73;;;;;;;10.58;80.57;100185.03;4840017;29;20267;-78
2022/11/19 04:49:31;;;;;;;51.33;28.98;;;;;;;10.53;81.19;100182.00;4849682;29;20304;-78
2022/11/19 04:52:12;;;;;;;46.65;27.80;;;;;;;10.39;81.31;100162.94;4841105;29;20047;-78
2022/11/19 04:54:52;;;;;;;46.80;29.42;;;;;;;10.49;81.35;100176.16;4843105;29;20102;-79
2022/11/19 04:57:34;;;;;;;51.95;31.05;;;;;;;10.50;81.65;100177.81;4839636;29;20166;-81
2022/11/19 05:00:12;;;;;;;42.58;27.73;;;;;;;10.44;81.99;100173.94;4829689;29;20377;-79
2022/11/19 05:02:44;;;;;;;48.75;30.65;;;;;;;10.61;82.06;100198.03;4839142;29;20060;-80
2022/11/19 05:05:11;;;;;;;53.05;31.30;;;;;;;10.62;81.51;100197.03;4839771;29;20781;-78
2022/11/19 05:07:39;;;;;;;46.47;30.38;;;;;;;10.58;81.84;100190.34;4874513;29;20159;-79
2022/11/19 05:10:13;;;;;;;54.40;31.40;;;;;;;10.58;81.62;100185.03;4859669;29;20147;-79
2022/11/19 05:12:42;;;;;;;49.95;30.98;;;;;;;10.57;81.85;100194.00;4854888;29;20603;-79
2022/11/19 05:15:18;;;;;;;54.47;30.63;;;;;;;10.61;81.78;100195.38;4845065;29;20067;-78
2022/11/19 05:17:50;;;;;;;45.13;29.65;;;;;;;10.60;81.50;100188.38;4853365;29;20063;-79
2022/11/19 05:20:29;;;;;;;52.85;31.35;;;;;;;10.54;81.70;100167.75;4841761;29;20594;-79
2022/11/19 05:23:08;;;;;;;43.35;28.48;;;;;;;10.54;81.43;100147.34;4840625;29;20427;-80
2022/11/19 05:25:47;;;;;;;48.53;29.98;;;;;;;10.58;81.22;100148.75;4834817;29;20652;-76
2022/11/19 05:28:13;;;;;;;51.13;28.63;;;;;;;10.48;80.12;100143.47;4845155;29;20377;-78
2022/11/19 05:30:51;;;;;;;50.90;27.67;;;;;;;10.46;80.08;100157.84;4849938;29;20062;-81
2022/11/19 05:33:22;;;;;;;44.45;26.98;;;;;;;10.57;80.47;100183.38;4862846;29;20694;-79
2022/11/19 05:35:50;;;;;;;54.38;27.40;;;;;;;10.63;80.67;100178.31;4824026;29;20267;-78
2022/11/19 05:38:17;;;;;;;44.13;27.23;;;;;;;10.48;79.84;100175.31;4860033;29;20052;-77
2022/11/19 05:40:47;;;;;;;41.88;26.45;;;;;;;10.54;79.49;100179.19;4855271;29;20143;-78
2022/11/19 05:43:15;;;;;;;46.10;26.40;;;;;;;10.40;78.98;100171.72;4860697;29;20622;-79
2022/11/19 05:45:55;;;;;;;40.67;25.65;;;;;;;10.42;79.19;100183.84;4844965;29;20312;-79
2022/11/19 05:48:34;;;;;;;42.70;25.92;;;;;;;10.39;78.97;100188.59;4842679;29;20961;-77
2022/11/19 05:51:22;;;;;;;35.90;24.13;;;;;;;10.29;79.41;100175.38;4844094;29;20064;-79
2022/11/19 05:53:56;;;;;;;41.60;25.15;;;;;;;10.39;79.07;100201.88;4850070;29;20493;-78
2022/11/19 05:56:30;;;;;;;44.05;23.83;;;;;;;10.47;79.69;100194.88;4840285;29;20052;-77
2022/11/19 05:59:03;;;;;;;39.65;26.20;;;;;;;10.46;78.99;100182.59;4842664;29;20143;-80
2022/11/19 06:01:38;;;;;;;48.58;28.58;;;;;;;10.46;78.44;100171.97;4872432;29;20089;-78
2022/11/19 06:04:05;;;;;;;49.38;28.88;;;;;;;10.42;78.56;100175.88;4852017;29;20577;-78
2022/11/19 06:06:37;;;;;;;44.58;29.17;;;;;;;10.51;78.57;100199.88;4860807;29;20553;-78
2022/11/19 06:09:21;;;;;;;50.90;29.95;;;;;;;10.44;79.38;100189.84;4847459;29;20495;-78
2022/11/19 06:11:51;;;;;;;49.45;28.48;;;;;;;10.31;79.10;100176.06;4868148;29;20190;-76
2022/11/19 06:14:27;;;;;;;50.60;28.88;;;;;;;10.40;79.28;100201.72;4856365;29;20084;-78
2022/11/19 06:17:08;;;;;;;46.20;28.80;;;;;;;10.38;78.91;100206.34;4870396;29;20467;-78
2022/11/19 06:19:45;;;;;;;51.20;29.23;;;;;;;10.27;78.74;100209.16;4862909;29;20477;-76
2022/11/19 06:22:21;;;;;;;51.60;29.65;;;;;;;10.30;78.76;100197.44;4874327;29;20075;-77
2022/11/19 06:24:57;;;;;;;51.55;29.35;;;;;;;10.19;79.14;100179.84;4879198;29;20048;-80
2022/11/19 06:27:37;;;;;;;50.17;28.60;;;;;;;10.36;79.00;100210.13;4872584;29;20043;-79
2022/11/19 06:30:31;;;;;;;57.22;30.00;;;;;;;10.25;78.74;100211.13;4856064;29;20060;-78
2022/11/19 06:33:08;;;;;;;52.55;29.90;;;;;;;10.21;79.28;100210.56;4870963;29;20139;-79
2022/11/19 06:35:50;;;;;;;49.78;30.63;;;;;;;10.25;79.59;100208.47;4860027;29;20134;-78
2022/11/19 06:38:35;;;;;;;52.13;29.52;;;;;;;10.20;79.48;100205.41;4857047;29;21115;-79
2022/11/19 06:41:14;;;;;;;48.80;29.35;;;;;;;10.20;79.18;100219.50;4873417;29;20052;-80
2022/11/19 06:43:49;;;;;;;54.35;30.20;;;;;;;10.23;79.31;100221.84;4866202;29;20059;-78
2022/11/19 06:46:22;;;;;;;52.08;30.65;;;;;;;10.27;79.16;100241.81;4833700;28;20066;-79
2022/11/19 06:49:07;;;;;;;53.53;30.83;;;;;;;10.26;79.50;100249.91;4855976;29;20270;-79
2022/11/19 06:51:46;;;;;;;48.45;29.98;;;;;;;10.05;79.17;100215.63;4839409;29;20055;-79
2022/11/19 06:54:26;;;;;;;44.90;28.75;;;;;;;10.05;78.32;100231.53;4856555;29;20070;-79
2022/11/19 06:56:53;;;;;;;43.70;27.13;;;;;;;10.14;78.69;100251.88;4880840;29;20871;-78
2022/11/19 06:59:20;;;;;;;45.92;28.30;;;;;;;10.16;78.22;100249.09;4881638;29;20523;-80
2022/11/19 07:01:52;;;;;;;44.10;27.40;;;;;;;10.12;78.19;100260.97;4889979;29;20549;-78
2022/11/19 07:04:35;;;;;;;43.75;25.95;;;;;;;10.10;78.47;100265.56;4881681;29;20051;-80
2022/11/19 07:07:07;;;;;;;48.80;27.33;;;;;;;9.65;77.66;100197.25;4867063;29;20059;-79
2022/11/19 07:09:49;;;;;;;42.55;26.33;;;;;;;10.00;77.25;100260.28;4870270;29;20063;-79
2022/11/19 07:12:28;;;;;;;44.35;27.33;;;;;;;10.02;77.61;100253.88;4864519;29;20158;-78
2022/11/19 07:15:03;;;;;;;46.08;28.15;;;;;;;10.05;76.77;100264.19;4867789;29;20059;-79
2022/11/19 07:17:46;;;;;;;44.08;29.20;;;;;;;9.96;76.70;100254.44;4863702;29;20476;-79
2022/11/19 07:20:19;;;;;;;46.33;30.25;;;;;;;10.10;76.82;100271.75;4835108;29;20288;-78
2022/11/19 07:22:48;;;;;;;49.65;31.08;;;;;;;10.21;74.89;100279.53;4868397;29;20697;-77
2022/11/19 07:25:25;;;;;;;49.65;31.60;;;;;;;9.99;76.11;100278.00;4877609;29;20827;-78
2022/11/19 07:27:52;;;;;;;53.83;34.03;;;;;;;9.77;75.92;100238.53;4855469;29;20056;-79
2022/11/19 07:30:33;;;;;;;49.55;32.55;;;;;;;10.07;75.58;100287.91;4861688;29;20480;-78
2022/11/19 07:33:13;;;;;;;51.03;33.35;;;;;;;10.05;75.46;100281.94;4855264;29;20197;-78
2022/11/19 07:35:44;;;;;;;51.78;33.30;;;;;;;10.09;75.89;100290.44;4838691;29;20540;-78
2022/11/19 07:38:16;;;;;;;47.33;31.42;;;;;;;10.12;75.69;100298.09;4851268;29;20055;-77
2022/11/19 07:40:55;;;;;;;49.92;31.70;;;;;;;10.03;75.80;100279.41;4853695;29;20051;-79
2022/11/19 07:43:27;;;;;;;37.88;26.17;;;;;;;9.84;76.10;100239.66;4860177;29;20132;-79
2022/11/19 07:45:54;;;;;;;48.80;30.00;;;;;;;10.23;74.60;100295.31;4859210;29;20058;-78
2022/11/19 07:48:24;;;;;;;47.45;29.88;;;;;;;10.19;75.05;100300.03;4879032;29;20099;-78
2022/11/19 07:50:51;;;;;;;47.78;28.33;;;;;;;10.26;75.05;100292.38;4861522;29;20336;-79
2022/11/19 07:53:22;;;;;;;43.25;27.63;;;;;;;10.41;74.05;100309.56;4860636;29;20139;-79
2022/11/19 07:55:51;;;;;;;41.58;27.80;;;;;;;10.21;74.82;100268.09;4870926;29;20052;-76
2022/11/19 07:58:18;;;;;;;44.33;29.55;;;;;;;10.43;74.51;100299.63;4853764;29;20873;-77
2022/11/19 08:00:45;;;;;;;43.05;27.70;;;;;;;10.55;74.56;100307.44;4864365;29;20186;-79
2022/11/19 08:03:18;;;;;;;49.60;29.02;;;;;;;10.19;74.44;100243.50;4843658;29;20362;-78
2022/11/19 08:05:50;;;;;;;40.08;28.58;;;;;;;10.64;73.89;100312.72;4848993;29;20106;-77
2022/11/19 08:08:32;;;;;;;39.80;25.90;;;;;;;10.58;74.10;100301.81;4858102;29;20504;-79
2022/11/19 08:11:05;;;;;;;44.65;28.85;;;;;;;10.67;72.69;100303.63;4862793;29;20048;-77
2022/11/19 08:13:38;;;;;;;42.03;26.90;;;;;;;9.80;73.75;100182.56;4866171;29;20408;-78
2022/11/19 08:19:21;;;;;;;55.17;30.98;;;;;;;10.50;74.09;100304.38;4863523;29;20043;-78
2022/11/19 08:22:03;;;;;;;;;;;;;;;10.76;74.06;100337.28;4866335;29;20460;-77
2022/11/19 08:24:57;;;;;;;60.55;32.70;;;;;;;10.62;74.37;100305.88;4862693;29;19926;-79
2022/11/19 08:27:43;;;;;;;58.63;31.98;;;;;;;10.86;73.62;100327.47;4871346;29;20502;-80
2022/11/19 08:30:13;;;;;;;53.03;31.25;;;;;;;10.78;74.06;100330.00;4880810;29;20114;-80
2022/11/19 08:32:43;;;;;;;52.40;30.15;;;;;;;10.76;74.63;100310.72;4872201;29;20059;-79
2022/11/19 08:35:10;;;;;;;50.78;31.55;;;;;;;10.88;73.79;100328.16;4877193;29;20479;-81
2022/11/19 08:38:08;;;;;;;52.60;31.98;;;;;;;10.54;73.60;100258.00;4871720;29;20627;-77
2022/11/19 08:40:35;;;;;;;59.67;34.38;;;;;;;10.87;74.01;100313.22;4897944;29;20429;-81
2022/11/19 08:43:03;;;;;;;58.35;32.83;;;;;;;10.48;74.66;100239.03;4891765;29;20163;-80
2022/11/19 08:45:40;;;;;;;68.72;37.97;;;;;;;10.90;74.85;100320.88;4892128;29;20435;-78
2022/11/19 08:48:12;;;;;;;64.50;38.90;;;;;;;10.92;75.50;100328.69;4895709;29;20204;-80
2022/11/19 08:50:41;;;;;;;73.10;41.42;;;;;;;10.94;76.03;100328.56;4878448;29;20364;-80
2022/11/19 08:53:08;;;;;;;74.97;44.28;;;;;;;10.93;76.50;100326.91;4878177;29;20063;-80
2022/11/19 08:55:34;;;;;;;81.10;43.97;;;;;;;10.88;77.38;100345.91;4873753;29;20162;-79
2022/11/19 08:58:03;;;;;;;82.75;42.65;;;;;;;10.82;77.12;100347.31;4877092;29;20166;-80
2022/11/19 09:00:36;;;;;;;70.88;37.92;;;;;;;10.64;78.23;100293.31;4874491;29;20052;-81
2022/11/19 09:03:03;;;;;;;71.00;37.40;;;;;;;11.13;78.37;100333.78;4875029;29;20064;-80
2022/11/19 09:05:30;;;;;;;68.47;37.60;;;;;;;11.71;77.10;100337.97;4874664;29;20566;-81
2022/11/19 09:08:02;;;;;;;74.00;41.47;;;;;;;11.72;74.84;100334.31;4876304;29;20048;-80
2022/11/19 09:10:29;;;;;;;59.78;36.10;;;;;;;11.54;75.85;100334.28;4881746;29;20142;-78
2022/11/19 09:12:57;;;;;;;70.72;42.65;;;;;;;11.27;75.99;100298.75;4894213;29;20982;-79
2022/11/19 09:15:23;;;;;;;80.88;46.47;;;;;;;11.36;76.60;100322.75;4896259;29;20511;-79
2022/11/19 09:17:53;;;;;;;84.95;45.30;;;;;;;11.14;76.50;100298.28;4895538;29;20142;-78
2022/11/19 09:20:21;;;;;;;86.90;44.83;;;;;;;10.26;77.23;100170.31;4880916;29;20103;-79
2022/11/19 09:22:48;;;;;;;75.88;40.95;;;;;;;11.24;77.14;100333.63;4909788;29;20054;-78
2022/11/19 09:25:21;;;;;;;82.63;44.15;;;;;;;11.38;77.56;100334.91;4926030;29;20075;-80
2022/11/19 09:27:49;;;;;;;83.60;45.30;;;;;;;11.49;77.01;100325.91;4919045;29;20047;-76
2022/11/19 09:30:22;;;;;;;84.03;43.70;;;;;;;11.48;76.50;100324.22;4917433;29;20150;-77
2022/11/19 09:32:49;;;;;;;85.43;47.35;;;;;;;11.31;76.08;100305.47;4929968;29;20098;-77
2022/11/19 09:35:24;;;;;;;83.85;45.60;;;;;;;11.17;77.23;100292.66;4917289;29;20426;-78
2022/11/19 09:37:53;;;;;;;87.82;46.85;;;;;;;11.22;78.17;100311.66;4924823;29;20139;-78
2022/11/19 09:40:24;;;;;;;88.95;48.35;;;;;;;11.14;78.57;100300.94;4910593;28;20450;-78
2022/11/19 09:43:07;;;;;;;88.00;48.22;;;;;;;10.92;77.94;100264.94;4890826;29;20091;-78
2022/11/19 09:45:52;;;;;;;90.70;47.10;;;;;;;11.38;78.00;100344.72;4874161;29;20760;-79
2022/11/19 09:48:38;;;;;;;100.45;50.88;;;;;;;11.29;77.92;100323.38;4877468;29;20147;-78
2022/11/19 09:51:13;;;;;;;80.68;46.67;;;;;;;11.33;79.15;100348.69;4894265;29;20074;-79
2022/11/19 09:53:58;;;;;;;72.70;40.40;;;;;;;10.99;79.14;100283.81;4897144;29;20111;-79
2022/11/19 09:56:32;;;;;;;89.90;49.60;;;;;;;11.55;78.96;100354.56;4876006;29;20052;-78
2022/11/19 09:59:01;;;;;;;91.32;49.88;;;;;;;11.54;78.52;100350.22;4880135;29;20501;-78
2022/11/19 10:01:29;;;;;;;96.43;52.50;;;;;;;11.07;78.43;100276.78;4873211;29;20056;-79
2022/11/19 10:03:57;;;;;;;98.60;53.85;;;;;;;11.48;79.30;100338.38;4874082;29;20143;-79
2022/11/19 10:06:31;;;;;;;107.90;56.28;;;;;;;11.44;79.35;100336.16;4881773;29;20573;-78
2022/11/19 10:09:16;;;;;;;107.18;51.67;;;;;;;11.58;79.37;100337.47;4895776;29;20535;-79
2022/11/19 10:11:51;;;;;;;117.35;56.15;;;;;;;11.53;78.89;100320.16;4896860;29;20059;-79
2022/11/19 10:14:39;;;;;;;123.30;58.85;;;;;;;11.59;79.46;100333.84;4907562;29;20094;-80
2022/11/19 10:17:40;;;;;;;119.55;60.13;;;;;;;11.46;79.81;100323.56;4914298;29;20059;-80
2022/11/19 10:20:25;;;;;;;105.93;51.78;;;;;;;11.30;80.98;100314.41;4898030;29;20887;-79
2022/11/19 10:23:10;;;;;;;132.60;61.38;;;;;;;10.86;81.30;100241.66;4895645;29;20513;-79
2022/11/19 10:25:43;;;;;;;125.88;61.92;;;;;;;11.18;81.23;100302.31;4901998;29;20052;-79
2022/11/19 10:28:37;;;;;;;107.13;57.03;;;;;;;11.42;80.61;100332.81;4896517;29;20062;-78
2022/11/19 10:31:21;;;;;;;118.97;56.72;;;;;;;11.42;80.64;100333.66;4895164;29;20586;-79
2022/11/19 10:34:30;;;;;;;112.18;60.15;;;;;;;11.46;81.12;100324.41;4883096;29;20051;-77
2022/11/19 10:37:06;;;;;;;125.22;59.78;;;;;;;11.52;80.77;100330.94;4871722;29;20382;-79
2022/11/19 10:40:00;;;;;;;129.75;62.92;;;;;;;11.47;80.71;100326.06;4893472;29;20596;-79
2022/11/19 10:42:41;;;;;;;123.78;60.97;;;;;;;11.34;81.61;100306.97;4889205;29;20099;-79
2022/11/19 10:45:18;;;;;;;129.75;62.03;;;;;;;11.40;81.88;100306.38;4880990;29;20063;-78
2022/11/19 10:47:58;;;;;;;136.52;63.15;;;;;;;11.04;81.46;100245.19;4881181;29;20589;-80
2022/11/19 10:50:35;;;;;;;140.35;67.10;;;;;;;11.32;82.36;100293.00;4894018;29;20138;-81
2022/11/19 10:53:35;;;;;;;152.40;65.53;;;;;;;11.28;82.72;100279.16;4869672;29;20522;-79
2022/11/19 10:56:23;;;;;;;139.07;65.75;;;;;;;11.10;83.24;100259.72;4843296;29;20457;-80
2022/11/19 10:59:17;;;;;;;149.93;68.60;;;;;;;11.18;83.59;100277.56;4885294;29;20499;-81
2022/11/19 11:02:23;;;;;;;163.98;67.63;;;;;;;11.19;84.32;100280.06;4876148;29;20495;-79
2022/11/19 11:05:09;;;;;;;157.45;71.20;;;;;;;11.19;83.97;100274.75;4860696;29;20236;-80
2022/11/19 11:08:02;;;;;;;162.27;70.32;;;;;;;11.00;84.14;100232.38;4866050;29;20059;-81
2022/11/19 11:10:36;;;;;;;165.20;71.47;;;;;;;10.98;83.70;100234.31;4881222;29;20243;-78
2022/11/19 11:16:18;;;;;;;165.88;71.57;;;;;;;10.87;83.65;100180.44;4896175;29;20357;-77
2022/11/19 11:18:47;;;;;;;181.15;72.55;;;;;;;11.42;84.07;100277.00;4894235;29;20565;-77
2022/11/19 11:21:28;;;;;;;176.30;75.05;;;;;;;11.41;83.63;100270.00;4893549;29;20381;-79
2022/11/19 11:23:55;;;;;;;168.57;74.88;;;;;;;11.36;84.42;100270.47;4893192;29;20588;-78
2022/11/19 11:26:26;;;;;;;178.95;76.20;;;;;;;10.89;84.36;100189.06;4874309;29;20849;-78
2022/11/19 11:29:03;;;;;;;164.43;66.90;;;;;;;11.45;83.62;100263.41;4875038;29;20811;-79
2022/11/19 11:31:37;;;;;;;191.88;73.75;;;;;;;11.43;83.32;100255.59;4884934;29;20362;-79
2022/11/19 11:34:06;;;;;;;173.82;67.65;;;;;;;11.26;83.89;100237.78;4894267;29;20162;-79
2022/11/19 11:36:36;;;;;;;177.70;74.70;;;;;;;11.38;84.05;100257.84;4894318;29;20510;-79
2022/11/19 11:39:10;;;;;;;183.13;70.05;;;;;;;11.07;84.79;100214.84;4895119;29;20064;-77
2022/11/19 11:41:51;;;;;;;168.18;69.50;;;;;;;11.21;83.64;100224.94;4889434;29;20207;-79
2022/11/19 11:45:03;;;;;;;185.18;72.72;;;;;;;11.18;84.32;100227.91;4885909;29;20055;-77
2022/11/19 11:47:43;;;;;;;201.15;70.25;;;;;;;10.89;83.82;100167.81;4881144;29;20044;-78
2022/11/19 11:50:24;;;;;;;184.50;70.55;;;;;;;11.23;83.86;100225.63;4905739;29;20656;-78
2022/11/19 11:52:52;;;;;;;180.98;73.50;;;;;;;11.19;84.78;100210.13;4891733;29;20601;-77
2022/11/19 11:55:24;;;;;;;196.95;76.47;;;;;;;11.22;83.85;100200.06;4880264;29;20060;-79
2022/11/19 11:58:23;;;;;;;170.98;71.93;;;;;;;10.99;84.12;100154.47;4899411;29;20051;-79
2022/11/19 12:00:54;;;;;;;177.38;71.38;;;;;;;10.82;84.43;100137.53;4913007;29;20275;-79
2022/11/19 12:03:23;;;;;;;168.40;71.57;;;;;;;11.14;84.48;100192.03;4922824;28;20440;-79
2022/11/19 12:06:11;;;;;;;177.00;74.55;;;;;;;11.13;84.82;100187.66;4900078;29;20158;-80
2022/11/19 12:09:14;;;;;;;165.95;65.20;;;;;;;11.03;85.26;100176.28;4896632;29;20519;-79